Time;durP1;ratioP1;P1;durP2;ratioP2;P2;SDS_P1;SDS_P2;PMS_P1;PMS_P2;Temp;Humidity;BMP_temperature;BMP_pressure;BME280_temperature;BME280_humidity;BME280_pressure;Samples;Min_cycle;Max_cycle;Signal;HPM_P1;HPM_P2
2022/12/18 00:01:39;;;;;;;49.57;24.23;;;;;;;-5.25;100.00;102678.78;4904291;29;20060;-72
2022/12/18 00:04:07;;;;;;;57.33;26.13;;;;;;;-5.29;100.00;102683.22;4901585;29;20506;-72
2022/12/18 00:06:34;;;;;;;49.73;24.83;;;;;;;-5.19;100.00;102684.03;4901617;29;20024;-73
2022/12/18 00:09:01;;;;;;;52.10;23.47;;;;;;;-5.24;100.00;102691.97;4899968;29;20016;-72
2022/12/18 00:11:29;;;;;;;60.83;26.17;;;;;;;-5.41;100.00;102678.06;4915616;29;20038;-70
2022/12/18 00:13:57;;;;;;;51.60;24.93;;;;;;;-5.43;100.00;102671.88;4910468;29;20039;-70
2022/12/18 00:16:24;;;;;;;50.33;22.80;;;;;;;-5.47;100.00;102662.25;4923231;29;20059;-70
2022/12/18 00:18:52;;;;;;;64.50;25.40;;;;;;;-5.57;100.00;102666.72;4927338;29;20090;-72
2022/12/18 00:21:18;;;;;;;53.90;24.73;;;;;;;-5.60;100.00;102671.16;4928232;29;20030;-72
2022/12/18 00:23:45;;;;;;;53.17;24.20;;;;;;;-5.61;100.00;102679.94;4927794;29;20028;-72
2022/12/18 00:26:16;;;;;;;57.93;26.30;;;;;;;-5.62;100.00;102678.19;4912263;29;20491;-72
2022/12/18 00:28:43;;;;;;;52.13;23.30;;;;;;;-5.50;100.00;102688.66;4918361;29;20066;-72
2022/12/18 00:31:11;;;;;;;58.83;23.10;;;;;;;-5.65;100.00;102694.06;4918382;29;20114;-72
2022/12/18 00:33:37;;;;;;;60.97;27.43;;;;;;;-5.71;100.00;102694.09;4900868;29;20031;-73
2022/12/18 00:36:09;;;;;;;54.77;25.20;;;;;;;-5.72;100.00;102702.91;4927204;29;20028;-71
2022/12/18 00:38:36;;;;;;;49.93;24.93;;;;;;;-5.72;100.00;102702.91;4900777;29;20024;-70
2022/12/18 00:41:01;;;;;;;58.20;25.10;;;;;;;-5.63;100.00;102708.09;4916707;29;20491;-70
2022/12/18 00:43:27;;;;;;;59.93;26.13;;;;;;;-5.70;100.00;102706.41;4929950;29;20039;-70
2022/12/18 00:45:52;;;;;;;53.80;24.53;;;;;;;-5.71;100.00;102709.94;4914646;29;20049;-70
2022/12/18 00:48:18;;;;;;;55.57;24.33;;;;;;;-5.72;100.00;102698.50;4927779;29;20044;-70
2022/12/18 00:50:44;;;;;;;51.43;25.43;;;;;;;-5.79;100.00;102704.69;4914259;29;20364;-70
2022/12/18 00:53:09;;;;;;;58.73;23.47;;;;;;;-5.81;100.00;102694.13;4929797;29;20542;-71
2022/12/18 00:55:34;;;;;;;65.37;24.10;;;;;;;-5.84;100.00;102688.88;4933972;29;20024;-70
2022/12/18 00:58:00;;;;;;;57.17;22.87;;;;;;;-5.80;100.00;102685.38;4905854;29;20107;-70
2022/12/18 01:00:25;;;;;;;46.53;22.30;;;;;;;-5.74;100.00;102690.59;4907895;29;20072;-73
2022/12/18 01:02:51;;;;;;;50.93;23.17;;;;;;;-5.83;100.00;102698.56;4927211;29;20023;-72
2022/12/18 01:05:16;;;;;;;50.83;24.53;;;;;;;-5.87;100.00;102693.28;4918031;29;20020;-72
2022/12/18 01:07:41;;;;;;;51.80;23.57;;;;;;;-5.92;100.00;102696.00;4910167;29;20115;-73
2022/12/18 01:10:11;;;;;;;91.40;24.00;;;;;;;-5.91;100.00;102703.03;4934481;29;20102;-71
2022/12/18 01:12:36;;;;;;;53.07;23.83;;;;;;;-5.85;100.00;102704.72;4918571;29;20084;-70
2022/12/18 01:15:02;;;;;;;45.93;21.37;;;;;;;-5.78;100.00;102715.22;4912591;29;20032;-71
2022/12/18 01:17:28;;;;;;;51.33;22.13;;;;;;;-5.79;100.00;102718.75;4918291;29;20094;-70
2022/12/18 01:19:53;;;;;;;48.87;23.57;;;;;;;-5.88;100.00;102708.25;4923689;29;20024;-70
2022/12/18 01:22:18;;;;;;;54.03;23.67;;;;;;;-5.91;100.00;102718.84;4906585;29;20436;-73
2022/12/18 01:24:44;;;;;;;50.57;22.87;;;;;;;-5.94;100.00;102708.31;4915078;29;20039;-73
2022/12/18 01:27:09;;;;;;;56.53;23.43;;;;;;;-5.91;100.00;102713.59;4910245;29;20028;-70
2022/12/18 01:29:34;;;;;;;51.73;22.70;;;;;;;-5.97;100.00;102705.72;4910349;29;20080;-71
2022/12/18 01:32:00;;;;;;;52.23;23.87;;;;;;;-5.85;100.00;102705.59;4913132;29;20028;-73
2022/12/18 01:34:25;;;;;;;60.73;22.50;;;;;;;-5.88;100.00;102705.59;4923724;29;20032;-73
2022/12/18 01:36:53;;;;;;;60.60;22.70;;;;;;;-5.92;100.00;102701.28;4914366;29;20028;-70
2022/12/18 01:39:19;;;;;;;45.07;20.97;;;;;;;-5.95;100.00;102701.28;4913698;29;20495;-70
2022/12/18 01:42:03;;;;;;;53.57;21.53;;;;;;;-6.01;100.00;102706.59;4916550;29;20087;-73
2022/12/18 01:45:06;;;;;;;52.73;23.37;;;;;;;-5.89;100.00;102711.78;4911087;29;20027;-72
2022/12/18 01:47:41;;;;;;;49.70;20.53;;;;;;;-6.02;100.00;102699.56;4934553;29;20063;-71
2022/12/18 01:50:35;;;;;;;44.50;21.53;;;;;;;-6.13;100.00;102718.09;4933398;29;20019;-70
2022/12/18 01:53:14;;;;;;;51.00;20.67;;;;;;;-6.13;100.00;102718.09;4912030;29;20462;-70
2022/12/18 01:55:47;;;;;;;41.40;19.60;;;;;;;-6.08;100.00;102710.16;4899648;29;20044;-70
2022/12/18 01:58:13;;;;;;;51.63;20.63;;;;;;;-6.09;100.00;102724.22;4906261;29;20039;-70
2022/12/18 02:00:38;;;;;;;45.07;21.10;;;;;;;-6.16;100.00;102717.22;4905090;29;20127;-70
2022/12/18 02:03:04;;;;;;;45.50;21.17;;;;;;;-6.11;100.00;102715.44;4902499;29;20016;-70
2022/12/18 02:06:09;;;;;;;51.83;21.43;;;;;;;-6.09;100.00;102716.31;4916449;29;20036;-71
2022/12/18 02:08:44;;;;;;;42.40;19.13;;;;;;;-6.15;100.00;102718.97;4916612;29;20020;-71
2022/12/18 02:11:18;;;;;;;48.83;21.53;;;;;;;-6.19;100.00;102722.53;4924960;29;20050;-71
2022/12/18 02:14:06;;;;;;;47.73;21.50;;;;;;;-6.14;100.00;102723.34;4909214;29;20043;-71
2022/12/18 02:17:03;;;;;;;45.57;19.53;;;;;;;-6.14;100.00;102726.00;4906301;29;20123;-70
2022/12/18 02:19:58;;;;;;;43.13;19.67;;;;;;;-6.10;100.00;102718.06;4922962;29;20489;-71
2022/12/18 02:22:42;;;;;;;40.17;20.03;;;;;;;-6.13;100.00;102719.81;4919422;29;20111;-71
2022/12/18 02:25:32;;;;;;;38.73;18.47;;;;;;;-6.16;100.00;102730.41;4913783;29;20511;-70
2022/12/18 02:28:01;;;;;;;50.73;19.90;;;;;;;-6.12;100.00;102729.53;4925376;29;20023;-70
2022/12/18 02:30:31;;;;;;;49.30;19.17;;;;;;;-6.14;100.00;102731.25;4908887;29;20131;-71
2022/12/18 02:32:58;;;;;;;39.87;17.63;;;;;;;-6.10;100.00;102738.28;4901327;29;20072;-70
2022/12/18 02:39:06;;;;;;;38.07;17.83;;;;;;;-6.01;100.00;102732.97;4914272;29;20171;-71
2022/12/18 02:41:32;;;;;;;37.23;17.70;;;;;;;-5.88;100.00;102742.53;4913054;29;20055;-71
2022/12/18 02:44:01;;;;;;;48.53;18.83;;;;;;;-6.14;100.00;102741.81;4909157;29;20106;-70
2022/12/18 02:46:34;;;;;;;42.00;17.70;;;;;;;-6.06;100.00;102740.03;4904447;29;20035;-71
2022/12/18 02:49:10;;;;;;;46.50;18.07;;;;;;;-6.09;100.00;102740.91;4917772;29;20042;-71
2022/12/18 02:51:50;;;;;;;43.57;18.27;;;;;;;-6.11;100.00;102747.09;4933200;29;20027;-71
2022/12/18 02:54:38;;;;;;;39.30;18.40;;;;;;;-6.18;100.00;102737.44;4915535;29;20035;-71
2022/12/18 02:57:14;;;;;;;52.77;17.60;;;;;;;-6.07;100.00;102739.13;4893754;29;20038;-70
2022/12/18 02:59:50;;;;;;;36.53;16.30;;;;;;;-6.09;100.00;102758.50;4914228;29;20174;-71
2022/12/18 03:02:35;;;;;;;35.03;16.77;;;;;;;-6.11;100.00;102762.91;4910793;29;20035;-71
2022/12/18 03:05:10;;;;;;;50.07;18.87;;;;;;;-6.06;100.00;102761.13;4905862;29;20524;-70
2022/12/18 03:07:46;;;;;;;41.03;17.63;;;;;;;-5.95;100.00;102758.44;4913203;29;20028;-73
2022/12/18 03:10:16;;;;;;;39.50;17.13;;;;;;;-6.00;100.00;102763.72;4910494;29;20031;-73
2022/12/18 03:12:55;;;;;;;42.97;17.77;;;;;;;-6.12;100.00;102761.16;4913623;29;20074;-70
2022/12/18 03:15:28;;;;;;;46.77;20.83;;;;;;;-6.16;100.00;102759.41;4926476;29;20031;-72
2022/12/18 03:18:03;;;;;;;48.57;17.87;;;;;;;-6.18;100.00;102753.25;4915861;29;20474;-72
2022/12/18 03:20:33;;;;;;;38.70;17.10;;;;;;;-6.20;100.00;102755.00;4931700;29;20056;-71
2022/12/18 03:23:13;;;;;;;40.40;18.27;;;;;;;-6.14;100.00;102757.63;4915419;29;20110;-72
2022/12/18 03:25:42;;;;;;;45.23;18.80;;;;;;;-6.34;100.00;102748.03;4915697;29;20091;-73
2022/12/18 03:28:13;;;;;;;40.33;17.13;;;;;;;-6.38;100.00;102746.28;4928274;29;20093;-73
2022/12/18 03:30:41;;;;;;;51.27;19.50;;;;;;;-6.44;100.00;102751.59;4913190;29;20031;-71
2022/12/18 03:33:19;;;;;;;38.10;18.60;;;;;;;-6.49;100.00;102755.97;4932256;29;20687;-70
2022/12/18 03:35:45;;;;;;;44.87;18.27;;;;;;;-6.57;100.00;102757.75;4915323;29;20028;-70
2022/12/18 03:38:11;;;;;;;42.53;18.87;;;;;;;-6.47;100.00;102759.47;4931406;29;20019;-70
2022/12/18 03:40:47;;;;;;;41.23;18.90;;;;;;;-6.53;100.00;102751.59;4915812;29;20027;-70
2022/12/18 03:43:20;;;;;;;43.70;18.47;;;;;;;-6.43;100.00;102761.25;4915412;29;20031;-70
2022/12/18 03:46:12;;;;;;;46.97;17.93;;;;;;;-6.43;100.00;102755.97;4931052;29;20034;-71
2022/12/18 03:48:48;;;;;;;41.03;18.37;;;;;;;-6.23;100.00;102752.41;4915905;29;20079;-71
2022/12/18 03:51:52;;;;;;;39.37;16.17;;;;;;;-6.32;100.00;102758.59;4932681;29;20032;-70
2022/12/18 03:54:18;;;;;;;38.83;16.27;;;;;;;-6.33;100.00;102752.41;4904319;29;20565;-70
2022/12/18 03:56:48;;;;;;;46.33;17.40;;;;;;;-6.47;100.00;102748.94;4929149;29;20507;-71
2022/12/18 03:59:15;;;;;;;34.90;17.83;;;;;;;-6.41;100.00;102748.94;4939072;28;20034;-71
2022/12/18 04:01:47;;;;;;;40.03;17.00;;;;;;;-6.35;100.00;102743.63;4932184;29;20035;-71
2022/12/18 04:04:15;;;;;;;42.08;17.98;;;;;;;-6.46;100.00;102739.28;4915072;29;20030;-71
2022/12/18 04:06:42;;;;;;;37.53;17.87;;;;;;;-6.62;100.00;102743.72;4915469;29;20031;-70
2022/12/18 04:09:08;;;;;;;33.87;16.43;;;;;;;-6.54;100.00;102741.94;4934587;29;20511;-70
2022/12/18 04:11:33;;;;;;;40.83;18.07;;;;;;;-6.61;100.00;102746.34;4935332;29;20096;-70
2022/12/18 04:13:59;;;;;;;37.00;16.13;;;;;;;-6.45;100.00;102752.47;4910142;29;20024;-70
2022/12/18 04:16:25;;;;;;;39.20;17.00;;;;;;;-6.51;100.00;102746.34;4929161;29;20056;-70
2022/12/18 04:18:51;;;;;;;40.03;16.40;;;;;;;-6.59;100.00;102748.97;4899970;29;20415;-70
2022/12/18 04:21:16;;;;;;;40.03;17.83;;;;;;;-6.44;100.00;102755.97;4903341;29;20024;-73
2022/12/18 04:23:42;;;;;;;39.10;16.93;;;;;;;-6.48;100.00;102741.91;4930712;29;20016;-73
2022/12/18 04:26:07;;;;;;;44.00;18.33;;;;;;;-6.49;100.00;102745.44;4931405;29;20093;-72
2022/12/18 04:28:33;;;;;;;36.20;17.30;;;;;;;-6.62;100.00;102747.22;4930335;29;20068;-73
2022/12/18 04:30:58;;;;;;;38.83;17.30;;;;;;;-6.63;100.00;102752.50;4899265;29;20024;-72
2022/12/18 04:33:27;;;;;;;38.00;18.20;;;;;;;-6.60;100.00;102757.75;4899521;29;20024;-73
2022/12/18 04:35:52;;;;;;;43.47;19.03;;;;;;;-6.67;100.00;102756.00;4900140;29;20024;-73
2022/12/18 04:38:18;;;;;;;39.37;18.17;;;;;;;-6.79;100.00;102750.75;4899589;29;20099;-73
2022/12/18 04:40:43;;;;;;;38.13;18.10;;;;;;;-6.88;100.00;102754.28;4914870;29;20036;-73
2022/12/18 04:43:08;;;;;;;50.27;16.67;;;;;;;-6.79;100.00;102761.28;4918522;29;20024;-73
2022/12/18 04:45:34;;;;;;;42.73;18.43;;;;;;;-6.84;100.00;102743.75;4921532;29;20020;-72
2022/12/18 04:48:00;;;;;;;37.13;17.07;;;;;;;-6.78;100.00;102747.25;4906939;29;20023;-72
2022/12/18 04:50:26;;;;;;;51.23;19.43;;;;;;;-6.87;100.00;102742.88;4914558;29;20039;-72
2022/12/18 04:52:52;;;;;;;44.13;18.47;;;;;;;-6.88;100.00;102747.25;4898352;29;20121;-72
2022/12/18 04:55:17;;;;;;;48.33;19.40;;;;;;;-6.82;100.00;102750.78;4898973;29;20032;-72
2022/12/18 04:57:43;;;;;;;35.97;17.87;;;;;;;-6.73;100.00;102753.38;4914064;29;20056;-72
2022/12/18 05:00:09;;;;;;;37.27;17.67;;;;;;;-6.63;100.00;102763.03;4929753;29;20020;-72
2022/12/18 05:02:34;;;;;;;40.37;17.37;;;;;;;-6.56;100.00;102764.78;4898764;29;20032;-72
2022/12/18 05:04:59;;;;;;;46.70;19.53;;;;;;;-6.73;100.00;102762.16;4898317;29;20123;-70
2022/12/18 05:07:25;;;;;;;40.60;19.23;;;;;;;-6.68;100.00;102770.06;4929819;29;20040;-71
2022/12/18 05:09:50;;;;;;;40.77;17.57;;;;;;;-6.53;100.00;102775.28;4898232;29;20040;-71
2022/12/18 05:12:15;;;;;;;43.07;17.37;;;;;;;-6.54;100.00;102773.56;4914841;29;20024;-71
2022/12/18 05:14:41;;;;;;;47.33;18.13;;;;;;;-6.53;100.00;102780.56;4908518;29;20531;-71
2022/12/18 05:17:06;;;;;;;50.63;19.73;;;;;;;-6.42;100.00;102781.44;4923382;29;20040;-71
2022/12/18 05:19:31;;;;;;;43.03;19.17;;;;;;;-6.73;100.00;102777.09;4921547;29;20036;-71
2022/12/18 05:21:57;;;;;;;43.70;18.20;;;;;;;-6.65;100.00;102791.13;4914841;29;20058;-71
2022/12/18 05:24:22;;;;;;;39.67;18.87;;;;;;;-6.61;100.00;102787.63;4920322;29;20039;-71
2022/12/18 05:26:48;;;;;;;40.67;17.60;;;;;;;-6.72;100.00;102784.97;4901137;29;20119;-71
2022/12/18 05:29:13;;;;;;;41.07;17.40;;;;;;;-6.57;100.00;102789.38;4909236;29;20028;-71
2022/12/18 05:31:39;;;;;;;46.87;20.00;;;;;;;-6.65;100.00;102785.84;4925895;29;20500;-71
2022/12/18 05:34:05;;;;;;;45.30;20.67;;;;;;;-6.68;100.00;102785.88;4917890;29;20023;-71
2022/12/18 05:36:30;;;;;;;44.83;19.03;;;;;;;-6.67;100.00;102785.84;4909829;29;20028;-71
2022/12/18 05:38:55;;;;;;;42.67;17.83;;;;;;;-6.53;100.00;102796.38;4920990;29;20039;-71
2022/12/18 05:41:21;;;;;;;52.50;20.53;;;;;;;-6.72;100.00;102794.63;4897887;29;20115;-72
2022/12/18 05:43:46;;;;;;;48.03;20.20;;;;;;;-6.79;100.00;102799.03;4930765;29;20028;-70
2022/12/18 05:46:14;;;;;;;45.83;17.13;;;;;;;-6.71;100.00;102801.69;4902079;29;20028;-73
2022/12/18 05:48:40;;;;;;;38.43;17.93;;;;;;;-6.75;100.00;102811.34;4917100;29;20031;-71
2022/12/18 05:51:12;;;;;;;36.93;18.87;;;;;;;-6.58;100.00;102803.44;4901045;29;20028;-70
2022/12/18 05:53:37;;;;;;;42.50;19.75;;;;;;;-6.54;100.00;102802.53;4915857;29;20046;-71
2022/12/18 05:56:05;;;;;;;47.33;20.63;;;;;;;-6.67;100.00;102799.03;4908125;29;20028;-70
2022/12/18 05:58:32;;;;;;;38.87;18.73;;;;;;;-6.67;100.00;102799.03;4933021;29;20027;-71
2022/12/18 06:00:57;;;;;;;60.80;19.60;;;;;;;-6.65;100.00;102812.19;4908103;29;20030;-71
2022/12/18 06:03:23;;;;;;;49.43;20.83;;;;;;;-6.73;100.00;102798.16;4903190;29;20119;-71
2022/12/18 06:05:49;;;;;;;43.70;20.73;;;;;;;-6.85;100.00;102794.66;4905350;29;20024;-71
2022/12/18 06:08:14;;;;;;;43.63;20.13;;;;;;;-6.89;100.00;102785.00;4905281;29;20031;-71
2022/12/18 06:10:40;;;;;;;39.80;18.90;;;;;;;-6.90;100.00;102793.78;4922131;29;20456;-71
2022/12/18 06:13:06;;;;;;;55.57;21.53;;;;;;;-6.95;100.00;102806.06;4924679;29;20019;-71
2022/12/18 06:15:32;;;;;;;52.40;22.83;;;;;;;-6.91;100.00;102810.47;4931465;29;20119;-71
2022/12/18 06:17:57;;;;;;;50.97;20.77;;;;;;;-6.79;100.00;102813.97;4931917;29;20066;-71
2022/12/18 06:20:23;;;;;;;41.57;20.60;;;;;;;-6.84;100.00;102817.50;4915899;29;20043;-70
2022/12/18 06:22:49;;;;;;;43.13;19.27;;;;;;;-6.79;100.00;102819.22;4931477;29;20031;-70
2022/12/18 06:25:14;;;;;;;43.73;19.70;;;;;;;-6.87;100.00;102814.84;4924121;29;20019;-70
2022/12/18 06:27:39;;;;;;;52.50;20.10;;;;;;;-6.77;100.00;102820.13;4915494;29;20078;-70
2022/12/18 06:30:06;;;;;;;45.43;19.67;;;;;;;-6.82;100.00;102821.88;4932475;29;20110;-73
2022/12/18 06:32:31;;;;;;;55.63;21.77;;;;;;;-6.78;100.00;102826.25;4915184;29;20042;-73
2022/12/18 06:34:57;;;;;;;46.17;19.30;;;;;;;-6.70;100.00;102824.50;4931498;29;20398;-70
2022/12/18 06:37:25;;;;;;;46.93;20.47;;;;;;;-6.80;100.00;102822.75;4916028;29;20028;-71
2022/12/18 06:39:51;;;;;;;47.47;19.60;;;;;;;-6.88;100.00;102831.53;4933021;29;20036;-71
2022/12/18 06:42:17;;;;;;;45.30;21.67;;;;;;;-6.87;100.00;102833.28;4932281;29;20534;-71
2022/12/18 06:44:42;;;;;;;44.73;20.53;;;;;;;-6.84;100.00;102828.03;4923047;29;20102;-71
2022/12/18 06:47:07;;;;;;;50.37;22.93;;;;;;;-6.79;100.00;102835.03;4915643;29;20114;-70
2022/12/18 06:49:33;;;;;;;50.53;22.67;;;;;;;-6.96;100.00;102822.75;4915815;29;20032;-71
2022/12/18 06:51:58;;;;;;;46.40;21.00;;;;;;;-6.96;100.00;102828.00;4915342;29;20039;-73
2022/12/18 06:54:23;;;;;;;55.10;21.50;;;;;;;-7.02;100.00;102832.41;4932460;29;20067;-73
2022/12/18 06:56:49;;;;;;;66.33;23.23;;;;;;;-7.04;100.00;102839.41;4915085;29;20038;-70
2022/12/18 06:59:14;;;;;;;57.47;21.67;;;;;;;-7.01;100.00;102829.75;4915463;29;20032;-70
2022/12/18 07:01:40;;;;;;;51.63;22.53;;;;;;;-7.13;100.00;102830.63;4915317;29;20031;-73
2022/12/18 07:04:05;;;;;;;51.00;21.27;;;;;;;-7.04;100.00;102824.50;4914405;29;20038;-73
2022/12/18 07:06:30;;;;;;;50.63;21.67;;;;;;;-7.17;100.00;102828.00;4914296;29;20130;-73
2022/12/18 07:08:56;;;;;;;59.17;23.17;;;;;;;-7.22;100.00;102829.75;4915082;29;20027;-73
2022/12/18 07:11:21;;;;;;;55.33;21.87;;;;;;;-7.13;100.00;102813.94;4914712;29;20035;-72
2022/12/18 07:13:47;;;;;;;54.97;23.90;;;;;;;-7.14;100.00;102823.59;4912927;29;20051;-73
2022/12/18 07:16:17;;;;;;;53.37;22.13;;;;;;;-7.16;100.00;102830.63;4931142;29;20024;-72
2022/12/18 07:18:43;;;;;;;52.43;23.33;;;;;;;-7.08;100.00;102837.66;4917324;29;20044;-71
2022/12/18 07:21:11;;;;;;;46.83;20.40;;;;;;;-6.98;100.00;102840.28;4914866;29;20480;-71
2022/12/18 07:23:37;;;;;;;53.60;22.00;;;;;;;-6.90;100.00;102838.56;4916173;29;20024;-71
2022/12/18 07:26:07;;;;;;;45.47;21.70;;;;;;;-7.01;100.00;102835.03;4897973;29;20111;-71
2022/12/18 07:28:36;;;;;;;51.57;21.47;;;;;;;-6.94;100.00;102842.06;4909390;29;20548;-71
2022/12/18 07:31:09;;;;;;;53.53;22.80;;;;;;;-6.88;100.00;102846.44;4923337;29;20026;-71
2022/12/18 07:33:35;;;;;;;45.93;20.47;;;;;;;-6.87;100.00;102853.47;4915208;29;20042;-70
2022/12/18 07:36:06;;;;;;;53.03;20.40;;;;;;;-6.88;100.00;102863.13;4899485;29;20044;-71
2022/12/18 07:38:33;;;;;;;61.85;20.85;;;;;;;-6.99;100.00;102859.59;4931464;29;20040;-71
2022/12/18 07:41:07;;;;;;;53.83;22.33;;;;;;;-6.98;100.00;102861.34;4907197;29;20043;-71
2022/12/18 07:43:33;;;;;;;62.47;21.73;;;;;;;-6.97;100.00;102857.84;4903592;29;20031;-71
2022/12/18 07:45:59;;;;;;;52.80;22.03;;;;;;;-6.96;100.00;102864.88;4908738;29;20039;-71
2022/12/18 07:48:25;;;;;;;63.50;24.50;;;;;;;-6.74;100.00;102870.16;4911138;29;20027;-71
2022/12/18 07:50:51;;;;;;;51.27;22.83;;;;;;;-6.97;100.00;102863.13;4902563;29;20034;-71
2022/12/18 07:53:16;;;;;;;47.63;21.03;;;;;;;-6.87;100.00;102875.41;4910807;29;20028;-71
2022/12/18 07:55:41;;;;;;;46.90;22.10;;;;;;;-6.95;100.00;102876.28;4918788;29;20151;-71
2022/12/18 07:58:07;;;;;;;55.87;22.43;;;;;;;-7.03;100.00;102873.66;4918402;29;20031;-70
2022/12/18 08:00:34;;;;;;;44.43;20.50;;;;;;;-6.91;100.00;102878.03;4935154;29;20024;-70
2022/12/18 08:02:59;;;;;;;49.47;23.30;;;;;;;-6.97;100.00;102878.94;4932070;29;20024;-73
2022/12/18 08:05:24;;;;;;;55.53;23.83;;;;;;;-7.07;100.00;102871.88;4899409;29;20030;-73
2022/12/18 08:07:50;;;;;;;53.07;22.70;;;;;;;-6.92;100.00;102866.63;4907605;29;20038;-73
2022/12/18 08:10:16;;;;;;;50.50;21.07;;;;;;;-6.82;100.00;102871.91;4905036;29;20020;-71
2022/12/18 08:12:41;;;;;;;49.87;21.33;;;;;;;-6.76;100.00;102866.66;4900453;29;20127;-69
2022/12/18 08:15:07;;;;;;;50.93;21.57;;;;;;;-6.72;100.00;102863.13;4914580;29;20020;-69
2022/12/18 08:17:32;;;;;;;55.67;23.30;;;;;;;-6.73;100.00;102864.00;4915008;29;20024;-69
2022/12/18 08:19:58;;;;;;;47.30;22.03;;;;;;;-6.81;100.00;102857.88;4915973;29;20052;-69
2022/12/18 08:22:23;;;;;;;54.77;20.70;;;;;;;-6.70;100.00;102857.00;4914369;29;20032;-69
2022/12/18 08:24:49;;;;;;;51.50;22.23;;;;;;;-6.54;100.00;102852.59;4915841;29;20030;-71
2022/12/18 08:27:14;;;;;;;44.63;20.63;;;;;;;-6.58;100.00;102862.28;4916210;29;20024;-71
2022/12/18 08:29:39;;;;;;;42.07;21.27;;;;;;;-6.47;100.00;102864.88;4946985;29;20024;-72
2022/12/18 08:32:05;;;;;;;54.87;21.20;;;;;;;-6.51;100.00;102859.63;4930479;29;20115;-71
2022/12/18 08:34:30;;;;;;;47.27;21.03;;;;;;;-6.40;100.00;102856.09;4914677;29;20020;-72
2022/12/18 08:36:55;;;;;;;52.73;22.70;;;;;;;-6.45;100.00;102852.59;4946001;29;20032;-72
2022/12/18 08:39:21;;;;;;;50.10;20.37;;;;;;;-6.43;100.00;102845.56;4944142;29;20484;-72
2022/12/18 08:44:37;;;;;;;52.60;20.93;;;;;;;-6.45;100.00;102852.59;4915574;29;20024;-72
2022/12/18 08:44:38;;;;;;;54.93;21.77;;;;;;;-6.10;100.00;102854.31;4916492;29;20020;-69
2022/12/18 08:47:05;;;;;;;52.63;21.53;;;;;;;-6.14;100.00;102857.81;4915521;29;20027;-69
2022/12/18 08:49:30;;;;;;;49.70;21.67;;;;;;;-6.01;100.00;102862.19;4914621;29;20076;-69
2022/12/18 08:51:59;;;;;;;46.53;21.50;;;;;;;-5.89;100.00;102859.47;4914657;29;20107;-72
2022/12/18 08:54:25;;;;;;;52.93;20.90;;;;;;;-5.76;100.00;102865.59;4912530;29;20469;-72
2022/12/18 08:56:51;;;;;;;47.23;18.97;;;;;;;-5.69;100.00;102862.03;4915563;29;20097;-72
2022/12/18 08:59:17;;;;;;;44.77;19.53;;;;;;;-5.64;99.99;102864.69;4914747;29;20057;-69
2022/12/18 09:01:43;;;;;;;39.97;18.40;;;;;;;-5.63;99.34;102861.16;4916039;29;20032;-69
2022/12/18 09:04:09;;;;;;;42.90;19.37;;;;;;;-5.54;99.53;102858.50;4914132;29;20028;-69
2022/12/18 09:06:35;;;;;;;41.47;18.10;;;;;;;-5.49;98.84;102849.63;4930897;29;20035;-69
2022/12/18 09:09:00;;;;;;;39.90;18.93;;;;;;;-5.35;98.19;102857.47;4914859;29;20054;-69
2022/12/18 09:11:27;;;;;;;38.87;17.67;;;;;;;-5.28;98.29;102861.88;4914977;29;20110;-70
2022/12/18 09:13:53;;;;;;;39.33;19.70;;;;;;;-5.25;98.00;102859.22;4922935;29;20041;-70
2022/12/18 09:16:19;;;;;;;54.53;19.27;;;;;;;-5.22;97.60;102856.56;4941911;28;20048;-70
2022/12/18 09:18:45;;;;;;;41.83;18.13;;;;;;;-5.04;97.31;102857.31;4934596;29;20033;-70
2022/12/18 09:21:13;;;;;;;42.70;17.80;;;;;;;-4.96;96.84;102856.38;4922337;29;20019;-69
2022/12/18 09:23:39;;;;;;;37.40;16.83;;;;;;;-4.87;96.48;102852.81;4917120;29;20019;-69
2022/12/18 09:26:04;;;;;;;45.43;16.97;;;;;;;-4.86;95.78;102846.63;4949266;28;20031;-69
2022/12/18 09:28:30;;;;;;;43.70;17.97;;;;;;;-5.02;96.05;102850.25;4917774;29;20024;-69
2022/12/18 09:30:55;;;;;;;50.87;17.23;;;;;;;-4.78;96.06;102855.38;4917048;29;20019;-70
2022/12/18 09:33:21;;;;;;;42.33;16.83;;;;;;;-4.75;95.88;102855.34;4933564;29;20051;-70
2022/12/18 09:35:46;;;;;;;47.30;18.00;;;;;;;-4.66;95.20;102843.84;4917256;29;20510;-70
2022/12/18 09:38:15;;;;;;;39.53;17.00;;;;;;;-4.66;94.77;102852.63;4934139;29;20038;-70
2022/12/18 09:40:47;;;;;;;49.07;18.73;;;;;;;-4.55;95.14;102856.97;4932875;29;20526;-70
2022/12/18 09:43:25;;;;;;;41.50;17.37;;;;;;;-4.33;93.82;102853.22;4916584;29;20072;-70
2022/12/18 09:45:57;;;;;;;37.13;17.90;;;;;;;-4.21;93.41;102854.88;4921554;28;20038;-69
2022/12/18 09:48:25;;;;;;;;;;;;;;;-4.14;93.83;102854.81;4931208;29;20421;-70
2022/12/18 09:50:54;;;;;;;38.60;17.40;;;;;;;-4.02;92.66;102853.81;4933284;29;19911;-70
2022/12/18 09:53:24;;;;;;;37.53;17.40;;;;;;;-3.83;92.37;102859.78;4916204;29;20027;-70
2022/12/18 09:55:52;;;;;;;31.43;16.63;;;;;;;-3.77;91.51;102857.06;4914268;29;20024;-70
2022/12/18 09:58:30;;;;;;;43.23;17.73;;;;;;;-3.72;91.34;102857.84;4916080;29;20031;-70
2022/12/18 10:00:56;;;;;;;39.23;18.10;;;;;;;-3.72;91.10;102863.16;4916740;29;20375;-70
2022/12/18 10:03:22;;;;;;;40.83;17.77;;;;;;;-3.48;90.62;102869.06;4931764;29;20071;-70
2022/12/18 10:06:31;;;;;;;35.57;18.70;;;;;;;-3.46;90.32;102854.00;4915799;29;20110;-70
2022/12/18 10:09:20;;;;;;;35.50;16.67;;;;;;;-3.53;90.19;102847.03;4910808;29;20059;-72
2022/12/18 10:12:05;;;;;;;41.10;17.27;;;;;;;-3.78;91.09;102852.66;4916309;29;20063;-71
2022/12/18 10:14:41;;;;;;;39.37;18.93;;;;;;;-3.51;91.08;102866.47;4917989;29;20035;-73
2022/12/18 10:17:25;;;;;;;34.93;17.27;;;;;;;-3.68;91.25;102854.28;4907425;29;20024;-71
2022/12/18 10:19:56;;;;;;;34.80;16.00;;;;;;;-3.60;90.16;102855.06;4923562;29;20048;-71
2022/12/18 10:22:57;;;;;;;37.97;17.80;;;;;;;-3.58;90.37;102861.25;4913001;29;20028;-71
2022/12/18 10:25:39;;;;;;;38.17;17.27;;;;;;;-3.53;90.30;102860.28;4949674;28;20040;-71
2022/12/18 10:28:16;;;;;;;44.30;17.43;;;;;;;-3.39;89.47;102858.31;4910427;29;20064;-70
2022/12/18 10:30:43;;;;;;;43.60;17.60;;;;;;;-3.58;90.23;102863.88;4913045;29;20047;-70
2022/12/18 10:33:15;;;;;;;33.73;15.23;;;;;;;-3.25;89.76;102867.00;4943069;29;20028;-71
2022/12/18 10:35:42;;;;;;;46.40;17.87;;;;;;;-3.41;89.71;102868.06;4912243;29;20036;-71
2022/12/18 10:38:13;;;;;;;39.90;16.93;;;;;;;-3.32;89.71;102873.28;4912529;29;20103;-71
2022/12/18 10:40:51;;;;;;;37.38;16.83;;;;;;;-3.12;89.00;102868.56;4927611;29;20063;-71
2022/12/18 10:43:24;;;;;;;39.03;16.73;;;;;;;-3.32;90.06;102878.56;4927289;29;20040;-71
2022/12/18 10:46:07;;;;;;;34.67;16.87;;;;;;;-3.44;89.39;102868.13;4928614;29;20056;-71
2022/12/18 10:48:38;;;;;;;38.80;16.60;;;;;;;-3.27;89.28;102863.47;4913133;29;20130;-71
2022/12/18 10:51:06;;;;;;;41.13;17.57;;;;;;;-3.36;89.67;102863.59;4927589;29;20040;-70
2022/12/18 10:53:34;;;;;;;37.27;17.50;;;;;;;-3.16;88.87;102852.72;4911697;29;20040;-71
2022/12/18 10:55:59;;;;;;;34.33;16.00;;;;;;;-2.96;89.06;102857.75;4912604;29;20028;-72
2022/12/18 10:58:28;;;;;;;37.60;18.03;;;;;;;-2.89;87.60;102856.75;4934104;28;20123;-72
2022/12/18 11:01:13;;;;;;;42.90;17.37;;;;;;;-2.89;88.74;102838.19;4891919;29;20029;-71
2022/12/18 11:03:58;;;;;;;34.67;17.47;;;;;;;-2.80;87.90;102830.13;4915119;29;20028;-72
2022/12/18 11:06:24;;;;;;;35.50;16.60;;;;;;;-2.78;86.85;102839.78;4908397;29;20535;-71
2022/12/18 11:09:01;;;;;;;41.33;16.87;;;;;;;-2.59;87.74;102840.34;4912553;29;20055;-71
2022/12/18 11:11:28;;;;;;;38.07;17.00;;;;;;;-2.59;86.47;102845.66;4919563;29;20028;-71
2022/12/18 11:14:02;;;;;;;32.53;15.10;;;;;;;-2.46;85.94;102839.25;4917999;29;20085;-71
2022/12/18 11:16:30;;;;;;;36.80;15.40;;;;;;;-2.49;86.06;102847.25;4941123;28;20041;-71
2022/12/18 11:19:12;;;;;;;31.87;16.37;;;;;;;-2.31;85.60;102834.56;4915806;29;20070;-71